createdAt,value
2023-02-15T00:00:11.471Z,99617.16
2023-02-15T00:02:39.414Z,99621.84
2023-02-15T00:05:07.123Z,99613.63
2023-02-15T00:07:34.410Z,99606.56
2023-02-15T00:10:01.698Z,99605.13
2023-02-15T00:12:28.953Z,99605.78
2023-02-15T00:14:56.260Z,99600.69
2023-02-15T00:17:23.548Z,99600.75
2023-02-15T00:19:51.054Z,99602.31
2023-02-15T00:22:18.493Z,99606.09
2023-02-15T00:24:45.741Z,99596.34
2023-02-15T00:27:13.242Z,99599.47
2023-02-15T00:29:40.791Z,99593.66
2023-02-15T00:32:08.084Z,99590.38
2023-02-15T00:34:35.404Z,99594.47
2023-02-15T00:37:02.686Z,99598.56
2023-02-15T00:39:30.023Z,99604.25
2023-02-15T00:41:57.389Z,99607.00
2023-02-15T00:44:24.669Z,99608.16
2023-02-15T00:46:51.934Z,99600.75
2023-02-15T00:49:21.512Z,99607.84
2023-02-15T00:51:49.715Z,99605.53
2023-02-15T00:54:16.972Z,99604.88
2023-02-15T00:56:44.245Z,99601.94
2023-02-15T00:59:11.550Z,99603.81
2023-02-15T01:01:38.877Z,99599.53
2023-02-15T01:04:06.411Z,99597.97
2023-02-15T01:06:33.965Z,99593.44
2023-02-15T01:09:01.250Z,99587.75
2023-02-15T01:11:28.545Z,99586.22
2023-02-15T01:13:58.498Z,99584.75
2023-02-15T01:16:29.183Z,99587.19
2023-02-15T01:18:56.925Z,99587.19
2023-02-15T01:21:26.624Z,99585.06
2023-02-15T01:23:54.284Z,99586.22
2023-02-15T01:26:21.832Z,99582.28
2023-02-15T01:28:49.118Z,99578.50
2023-02-15T01:31:19.974Z,99585.00
2023-02-15T01:33:48.407Z,99583.94
2023-02-15T01:36:18.184Z,99579.56
2023-02-15T01:38:45.705Z,99573.19
2023-02-15T01:41:23.806Z,99578.94
2023-02-15T01:44:03.118Z,99581.22
2023-02-15T01:46:40.890Z,99576.81
2023-02-15T01:49:16.412Z,99575.91
2023-02-15T01:51:47.109Z,99576.66
2023-02-15T01:54:28.416Z,99577.19
2023-02-15T01:57:00.998Z,99575.84
2023-02-15T01:59:28.451Z,99586.09
2023-02-15T02:02:00.655Z,99578.56
2023-02-15T02:04:42.882Z,99580.47
2023-02-15T02:07:13.798Z,99574.72
2023-02-15T02:09:41.270Z,99584.03
2023-02-15T02:12:08.986Z,99570.63
2023-02-15T02:14:37.223Z,99577.66
2023-02-15T02:17:18.849Z,99570.59
2023-02-15T02:19:46.031Z,99563.94
2023-02-15T02:22:50.355Z,99557.41
2023-02-15T02:25:51.555Z,99558.22
2023-02-15T02:28:31.484Z,99563.50
2023-02-15T02:31:34.494Z,99551.25
2023-02-15T02:34:06.241Z,99546.97
2023-02-15T02:36:56.551Z,99550.75
2023-02-15T02:40:25.513Z,99546.84
2023-02-15T02:43:02.965Z,99545.69
2023-02-15T02:45:53.286Z,99543.00
2023-02-15T02:48:25.286Z,99531.69
2023-02-15T02:50:52.177Z,99534.22
2023-02-15T02:53:19.658Z,99529.75
2023-02-15T02:56:01.583Z,99537.75
2023-02-15T02:58:49.684Z,99539.00
2023-02-15T03:01:34.706Z,99541.75
2023-02-15T03:04:10.374Z,99541.78
2023-02-15T03:06:51.051Z,99539.59
2023-02-15T03:09:35.490Z,99535.50
2023-02-15T03:12:06.090Z,99538.75
2023-02-15T03:14:39.194Z,99539.25
2023-02-15T03:17:08.169Z,99547.94
2023-02-15T03:19:38.022Z,99547.22
2023-02-15T03:22:29.706Z,99542.78
2023-02-15T03:25:19.949Z,99543.63
2023-02-15T03:27:56.366Z,99544.34
2023-02-15T03:30:25.179Z,99546.28
2023-02-15T03:32:55.137Z,99543.13
2023-02-15T03:35:26.927Z,99543.34
2023-02-15T03:38:02.091Z,99541.28
2023-02-15T03:41:02.249Z,99544.25
2023-02-15T03:43:51.008Z,99535.13
2023-02-15T03:46:34.661Z,99536.28
2023-02-15T03:50:02.045Z,99532.28
2023-02-15T03:52:30.737Z,99534.31
2023-02-15T03:54:58.213Z,99529.84
2023-02-15T03:57:47.470Z,99534.22
2023-02-15T04:00:43.559Z,99526.03
2023-02-15T04:03:16.564Z,99524.44
2023-02-15T04:05:45.442Z,99521.97
2023-02-15T04:08:13.480Z,99527.31
2023-02-15T04:10:58.869Z,99535.91
2023-02-15T04:13:33.867Z,99543.53
2023-02-15T04:16:04.651Z,99542.72
2023-02-15T04:18:56.226Z,99543.44
2023-02-15T04:21:44.593Z,99547.94
2023-02-15T04:24:30.590Z,99541.34
2023-02-15T04:26:58.413Z,99546.91
2023-02-15T04:29:26.730Z,99548.25
2023-02-15T04:31:55.452Z,99550.13
2023-02-15T04:34:22.985Z,99542.03
2023-02-15T04:36:51.131Z,99535.25
2023-02-15T04:39:19.705Z,99536.72
2023-02-15T04:41:47.240Z,99528.66
2023-02-15T04:44:14.223Z,99527.78
2023-02-15T04:46:41.576Z,99527.84
2023-02-15T04:49:09.939Z,99526.22
2023-02-15T04:51:37.307Z,99526.59
2023-02-15T04:54:04.667Z,99538.31
2023-02-15T04:56:34.121Z,99527.00
2023-02-15T04:59:01.627Z,99526.56
2023-02-15T05:01:29.008Z,99528.00
2023-02-15T05:03:56.450Z,99528.13
2023-02-15T05:06:23.884Z,99529.78
2023-02-15T05:08:59.985Z,99525.22
2023-02-15T05:11:30.065Z,99527.34
2023-02-15T05:13:57.603Z,99526.91
2023-02-15T05:16:24.900Z,99517.44
2023-02-15T05:18:52.245Z,99513.16
2023-02-15T05:21:19.575Z,99515.88
2023-02-15T05:23:46.912Z,99509.81
2023-02-15T05:26:39.666Z,99507.25
2023-02-15T05:29:07.043Z,99509.94
2023-02-15T05:31:34.781Z,99511.63
2023-02-15T05:34:02.359Z,99512.69
2023-02-15T05:36:29.849Z,99506.91
2023-02-15T05:38:57.439Z,99513.50
2023-02-15T05:41:25.256Z,99513.66
2023-02-15T05:43:52.562Z,99521.22
2023-02-15T05:46:19.922Z,99518.22
2023-02-15T05:48:47.216Z,99517.69
2023-02-15T05:51:16.754Z,99505.44
2023-02-15T05:53:44.299Z,99521.78
2023-02-15T05:56:13.115Z,99523.47
2023-02-15T05:58:42.136Z,99512.94
2023-02-15T06:01:19.131Z,99516.81
2023-02-15T06:03:47.158Z,99525.56
2023-02-15T06:06:14.735Z,99526.53
2023-02-15T06:08:42.243Z,99532.78
2023-02-15T06:11:09.769Z,99528.63
2023-02-15T06:13:38.791Z,99532.88
2023-02-15T06:16:07.456Z,99533.75
2023-02-15T06:18:34.922Z,99535.56
2023-02-15T06:21:02.257Z,99536.38
2023-02-15T06:23:29.749Z,99540.13
2023-02-15T06:25:57.051Z,99539.38
2023-02-15T06:28:26.415Z,99542.81
2023-02-15T06:30:53.922Z,99542.75
2023-02-15T06:33:21.381Z,99554.88
2023-02-15T06:35:48.685Z,99545.63
2023-02-15T06:38:16.016Z,99551.69
2023-02-15T06:40:43.288Z,99553.09
2023-02-15T06:43:10.545Z,99543.00
2023-02-15T06:45:37.822Z,99545.63
2023-02-15T06:48:07.751Z,99552.22
2023-02-15T06:50:35.523Z,99556.53
2023-02-15T06:53:02.929Z,99553.16
2023-02-15T06:55:30.318Z,99556.16
2023-02-15T06:57:57.661Z,99555.09
2023-02-15T07:00:24.961Z,99559.44
2023-02-15T07:02:59.297Z,99557.28
2023-02-15T07:05:31.932Z,99563.94
2023-02-15T07:08:00.172Z,99568.47
2023-02-15T07:10:28.357Z,99565.47
2023-02-15T07:12:55.658Z,99567.53
2023-02-15T07:15:23.064Z,99569.91
2023-02-15T07:17:50.601Z,99563.47
2023-02-15T07:20:21.235Z,99563.38
2023-02-15T07:22:48.806Z,99558.53
2023-02-15T07:25:16.351Z,99565.66
2023-02-15T07:27:45.062Z,99570.13
2023-02-15T07:30:16.003Z,99566.09
2023-02-15T07:33:04.836Z,99564.47
2023-02-15T07:35:33.115Z,99570.44
2023-02-15T07:38:00.602Z,99567.22
2023-02-15T07:40:28.225Z,99569.81
2023-02-15T07:42:58.526Z,99569.22
2023-02-15T07:45:25.858Z,99559.69
2023-02-15T07:47:53.427Z,99569.50
2023-02-15T07:50:20.710Z,99566.31
2023-02-15T07:52:47.618Z,99565.38
2023-02-15T07:55:14.956Z,99559.75
2023-02-15T07:57:47.166Z,99573.88
2023-02-15T08:00:19.307Z,99566.91
2023-02-15T08:03:13.961Z,99560.56
2023-02-15T08:05:43.520Z,99554.25
2023-02-15T08:08:32.247Z,99560.94
2023-02-15T08:11:34.211Z,99556.97
2023-02-15T08:14:22.975Z,99569.06
2023-02-15T08:16:58.687Z,99554.22
2023-02-15T08:19:28.721Z,99565.59
2023-02-15T08:21:58.930Z,99550.28
2023-02-15T08:24:32.615Z,99559.59
2023-02-15T08:27:00.394Z,99558.38
2023-02-15T08:29:29.308Z,99563.03
2023-02-15T08:32:03.587Z,99558.75
2023-02-15T08:34:37.281Z,99564.06
2023-02-15T08:37:04.886Z,99561.75
2023-02-15T08:39:32.225Z,99565.66
2023-02-15T08:41:59.498Z,99566.28
2023-02-15T08:44:26.812Z,99553.34
2023-02-15T08:46:55.553Z,99562.34
2023-02-15T08:49:23.209Z,99565.13
2023-02-15T08:51:50.840Z,99557.13
2023-02-15T08:54:22.622Z,99556.63
2023-02-15T08:56:49.852Z,99563.94
2023-02-15T08:59:21.083Z,99559.44
2023-02-15T09:01:49.608Z,99557.06
2023-02-15T09:04:17.788Z,99547.69
2023-02-15T09:06:48.741Z,99549.09
2023-02-15T09:09:17.267Z,99541.78
2023-02-15T09:11:47.646Z,99540.69
2023-02-15T09:14:21.297Z,99544.78
2023-02-15T09:16:51.760Z,99546.88
2023-02-15T09:19:22.402Z,99539.88
2023-02-15T09:21:49.709Z,99536.09
2023-02-15T09:24:18.069Z,99525.56
2023-02-15T09:26:47.901Z,99519.34
2023-02-15T09:29:16.880Z,99512.91
2023-02-15T09:31:50.883Z,99507.22
2023-02-15T09:34:21.490Z,99502.28
2023-02-15T09:36:49.217Z,99508.34
2023-02-15T09:39:25.421Z,99501.72
2023-02-15T09:42:05.621Z,99505.91
2023-02-15T09:45:09.013Z,99503.06
2023-02-15T09:47:58.024Z,99493.47
2023-02-15T09:51:05.300Z,99498.13
2023-02-15T09:54:03.393Z,99495.94
2023-02-15T09:56:49.514Z,99494.66
2023-02-15T09:59:51.568Z,99493.94
2023-02-15T10:02:51.606Z,99485.50
2023-02-15T10:05:21.682Z,99486.03
2023-02-15T10:08:14.358Z,99480.53
2023-02-15T10:10:48.179Z,99482.81
2023-02-15T10:13:22.552Z,99477.38
2023-02-15T10:16:13.957Z,99475.00
2023-02-15T10:19:13.085Z,99471.19
2023-02-15T10:22:04.001Z,99470.97
2023-02-15T10:24:49.263Z,99465.94
2023-02-15T10:27:25.065Z,99455.72
2023-02-15T10:30:21.613Z,99457.91
2023-02-15T10:33:03.823Z,99455.03
2023-02-15T10:35:53.539Z,99452.94
2023-02-15T10:38:43.856Z,99456.53
2023-02-15T10:42:11.086Z,99448.09
2023-02-15T10:44:52.759Z,99441.41
2023-02-15T10:48:05.209Z,99435.91
2023-02-15T10:51:09.508Z,99432.34
2023-02-15T10:53:57.459Z,99434.09
2023-02-15T10:57:22.889Z,99426.63
2023-02-15T11:00:11.808Z,99431.09
2023-02-15T11:02:44.065Z,99423.13
2023-02-15T11:05:43.092Z,99423.00
2023-02-15T11:08:12.424Z,99413.69
2023-02-15T11:10:55.174Z,99410.19
2023-02-15T11:13:28.513Z,99410.16
2023-02-15T11:16:02.277Z,99410.88
2023-02-15T11:18:33.587Z,99408.50
2023-02-15T11:21:03.201Z,99415.78
2023-02-15T11:23:31.200Z,99408.00
2023-02-15T11:26:02.414Z,99398.44
2023-02-15T11:28:48.086Z,99398.97
2023-02-15T11:31:27.507Z,99397.84
2023-02-15T11:34:04.291Z,99393.19
2023-02-15T11:36:38.792Z,99393.13
2023-02-15T11:39:19.351Z,99390.22
2023-02-15T11:41:54.796Z,99386.78
2023-02-15T11:44:37.853Z,99397.09
2023-02-15T11:47:09.194Z,99391.53
2023-02-15T11:49:36.716Z,99386.03
2023-02-15T11:52:08.843Z,99381.13
2023-02-15T11:54:41.514Z,99386.94
2023-02-15T11:57:27.772Z,99381.47
2023-02-15T12:00:05.103Z,99361.69
2023-02-15T12:02:39.144Z,99353.09
2023-02-15T12:05:20.648Z,99344.25
2023-02-15T12:07:53.763Z,99348.44
2023-02-15T12:10:33.104Z,99352.00
2023-02-15T12:13:18.767Z,99350.19
2023-02-15T12:15:49.745Z,99343.41
2023-02-15T12:18:41.696Z,99349.41
2023-02-15T12:21:15.560Z,99344.22
2023-02-15T12:23:53.979Z,99332.25
2023-02-15T12:26:33.354Z,99329.75
2023-02-15T12:29:08.080Z,99348.44
2023-02-15T12:31:42.135Z,99338.09
2023-02-15T12:34:26.552Z,99339.84
2023-02-15T12:36:58.798Z,99332.00
2023-02-15T12:39:32.378Z,99340.13
2023-02-15T12:42:05.834Z,99326.91
2023-02-15T12:44:35.394Z,99324.09
2023-02-15T12:47:17.608Z,99341.50
2023-02-15T12:49:47.999Z,99327.81
2023-02-15T12:52:21.250Z,99329.31
2023-02-15T12:54:48.997Z,99312.94
2023-02-15T12:57:21.229Z,99306.56
2023-02-15T13:00:06.976Z,99313.75
2023-02-15T13:02:53.749Z,99304.63
2023-02-15T13:05:43.428Z,99312.38
2023-02-15T13:08:22.739Z,99299.41
2023-02-15T13:11:11.597Z,99291.00
2023-02-15T13:14:00.280Z,99294.94
2023-02-15T13:16:40.491Z,99289.34
2023-02-15T13:19:47.448Z,99281.81
2023-02-15T13:22:18.910Z,99270.09
2023-02-15T13:24:51.436Z,99269.00
2023-02-15T13:27:22.488Z,99277.72
2023-02-15T13:30:00.158Z,99268.44
2023-02-15T13:32:37.285Z,99254.72
2023-02-15T13:35:09.327Z,99251.19
2023-02-15T13:38:01.994Z,99245.94
2023-02-15T13:40:49.454Z,99253.69
2023-02-15T13:43:48.261Z,99243.88
2023-02-15T13:47:03.256Z,99250.84
2023-02-15T13:50:20.714Z,99245.06
2023-02-15T13:53:25.705Z,99236.09
2023-02-15T13:55:58.409Z,99240.38
2023-02-15T13:59:11.949Z,99225.44
2023-02-15T14:02:24.501Z,99234.16
2023-02-15T14:05:26.980Z,99221.97
2023-02-15T14:08:35.268Z,99215.16
2023-02-15T14:11:34.400Z,99220.91
2023-02-15T14:14:43.330Z,99212.28
2023-02-15T14:17:22.666Z,99216.59
2023-02-15T14:19:57.882Z,99216.25
2023-02-15T14:22:32.932Z,99225.66
2023-02-15T14:25:16.349Z,99212.75
2023-02-15T14:28:31.042Z,99224.06
2023-02-15T14:30:58.799Z,99225.66
2023-02-15T14:33:41.581Z,99221.47
2023-02-15T14:36:13.253Z,99224.00
2023-02-15T14:39:00.995Z,99221.25
2023-02-15T14:41:51.111Z,99233.41
2023-02-15T14:44:39.513Z,99225.72
2023-02-15T14:47:20.017Z,99225.59
2023-02-15T14:49:46.994Z,99232.25
2023-02-15T14:52:14.352Z,99225.63
2023-02-15T14:54:41.662Z,99236.44
2023-02-15T14:57:09.258Z,99233.00
2023-02-15T14:59:46.868Z,99235.63
2023-02-15T15:02:23.681Z,99236.03
2023-02-15T15:05:15.489Z,99234.34
2023-02-15T15:07:56.299Z,99238.19
2023-02-15T15:10:23.493Z,99232.81
2023-02-15T15:12:57.880Z,99230.66
2023-02-15T15:15:30.844Z,99233.47
2023-02-15T15:18:07.040Z,99239.16
2023-02-15T15:20:46.134Z,99241.09
2023-02-15T15:23:15.853Z,99240.63
2023-02-15T15:25:43.155Z,99242.25
2023-02-15T15:28:10.620Z,99232.66
2023-02-15T15:30:37.789Z,99236.59
2023-02-15T15:33:49.452Z,99235.38
2023-02-15T15:36:54.601Z,99235.00
2023-02-15T15:40:08.948Z,99230.34
2023-02-15T15:43:15.568Z,99235.31
2023-02-15T15:46:17.234Z,99235.03
2023-02-15T15:48:44.211Z,99236.28
2023-02-15T15:51:21.597Z,99230.34
2023-02-15T15:53:53.968Z,99244.97
2023-02-15T15:56:32.097Z,99244.25
2023-02-15T15:59:08.762Z,99240.94
2023-02-15T16:01:44.008Z,99236.88
2023-02-15T16:04:27.484Z,99238.25
2023-02-15T16:06:54.747Z,99239.78
2023-02-15T16:09:23.701Z,99242.13
2023-02-15T16:11:55.958Z,99242.06
2023-02-15T16:14:27.551Z,99241.97
2023-02-15T16:16:59.038Z,99244.47
2023-02-15T16:19:32.995Z,99237.56
2023-02-15T16:22:01.023Z,99237.81
2023-02-15T16:24:53.275Z,99239.19
2023-02-15T16:27:45.100Z,99244.41
2023-02-15T16:30:33.384Z,99242.13
2023-02-15T16:33:11.633Z,99248.41
2023-02-15T16:35:57.407Z,99255.53
2023-02-15T16:38:42.906Z,99247.47
2023-02-15T16:41:17.808Z,99259.28
2023-02-15T16:43:49.395Z,99271.00
2023-02-15T16:46:31.656Z,99269.16
2023-02-15T16:49:30.286Z,99269.94
2023-02-15T16:52:01.842Z,99265.66
2023-02-15T16:54:32.251Z,99273.19
2023-02-15T16:57:00.011Z,99274.78
2023-02-15T16:59:41.224Z,99280.41
2023-02-15T17:02:53.207Z,99287.66
2023-02-15T17:05:25.393Z,99291.25
2023-02-15T17:08:18.455Z,99301.13
2023-02-15T17:11:19.496Z,99290.22
2023-02-15T17:14:09.724Z,99296.81
2023-02-15T17:16:50.596Z,99297.47
2023-02-15T17:19:27.623Z,99301.38
2023-02-15T17:22:02.503Z,99303.81
2023-02-15T17:24:38.737Z,99300.44
2023-02-15T17:27:28.163Z,99302.56
2023-02-15T17:30:05.020Z,99311.16
2023-02-15T17:32:34.432Z,99320.09
2023-02-15T17:35:28.166Z,99315.19
2023-02-15T17:38:20.359Z,99323.00
2023-02-15T17:40:48.202Z,99325.25
2023-02-15T17:43:15.517Z,99327.41
2023-02-15T17:45:50.227Z,99318.28
2023-02-15T17:48:31.801Z,99332.13
2023-02-15T17:51:01.952Z,99323.44
2023-02-15T17:53:29.336Z,99325.53
2023-02-15T17:55:56.442Z,99327.16
2023-02-15T17:58:23.886Z,99324.56
2023-02-15T18:01:14.308Z,99328.00
2023-02-15T18:04:06.145Z,99319.44
2023-02-15T18:06:54.129Z,99326.38
2023-02-15T18:09:41.687Z,99329.41
2023-02-15T18:12:28.156Z,99326.69
2023-02-15T18:14:56.291Z,99323.31
2023-02-15T18:17:31.219Z,99332.44
2023-02-15T18:19:58.543Z,99320.22
2023-02-15T18:22:27.249Z,99321.75
2023-02-15T18:24:54.610Z,99323.84
2023-02-15T18:27:22.552Z,99325.91
2023-02-15T18:29:59.515Z,99321.66
2023-02-15T18:36:38.068Z,99328.28
2023-02-15T18:39:23.193Z,99325.25
2023-02-15T18:45:15.889Z,99335.78
2023-02-15T18:47:50.212Z,99329.78
2023-02-15T18:50:24.977Z,99334.19
2023-02-15T18:52:52.339Z,99332.97
2023-02-15T18:55:26.268Z,99335.00
2023-02-15T18:57:56.224Z,99325.06
2023-02-15T19:00:33.003Z,99316.84
2023-02-15T19:03:02.357Z,99320.13
2023-02-15T19:05:31.126Z,99312.53
2023-02-15T19:08:00.837Z,99304.97
2023-02-15T19:10:30.800Z,99306.84
2023-02-15T19:12:58.517Z,99307.34
2023-02-15T19:15:30.082Z,99308.41
2023-02-15T19:17:57.414Z,99293.81
2023-02-15T19:20:30.406Z,99301.19
2023-02-15T19:23:00.286Z,99286.41
2023-02-15T19:25:30.604Z,99293.19
2023-02-15T19:28:01.426Z,99294.38
2023-02-15T19:30:31.456Z,99290.34
2023-02-15T19:32:59.827Z,99298.78
2023-02-15T19:35:32.247Z,99291.63
2023-02-15T19:38:16.579Z,99301.38
2023-02-15T19:40:44.035Z,99302.56
2023-02-15T19:43:26.769Z,99299.06
2023-02-15T19:45:54.200Z,99302.25
2023-02-15T19:48:21.580Z,99301.28
2023-02-15T19:50:49.184Z,99309.69
2023-02-15T19:56:18.437Z,99298.69
2023-02-15T19:58:45.839Z,99299.53
2023-02-15T20:01:13.130Z,99306.47
2023-02-15T20:03:40.455Z,99294.69
2023-02-15T20:06:13.902Z,99291.53
2023-02-15T20:08:42.345Z,99301.19
2023-02-15T20:11:11.952Z,99303.34
2023-02-15T20:13:40.218Z,99304.47
2023-02-15T20:16:08.331Z,99297.06
2023-02-15T20:18:36.010Z,99300.91
2023-02-15T20:21:04.623Z,99292.19
2023-02-15T20:23:35.572Z,99297.97
2023-02-15T20:26:18.173Z,99292.41
2023-02-15T20:28:46.295Z,99290.72
2023-02-15T20:31:17.657Z,99292.13
2023-02-15T20:33:45.047Z,99289.06
2023-02-15T20:36:15.589Z,99286.81
2023-02-15T20:38:43.767Z,99281.81
2023-02-15T20:41:40.018Z,99287.91
2023-02-15T20:44:25.233Z,99289.19
2023-02-15T20:46:58.564Z,99284.53
2023-02-15T20:49:27.887Z,99289.13
2023-02-15T20:51:56.550Z,99295.84
2023-02-15T20:54:33.630Z,99287.00
2023-02-15T20:57:01.671Z,99296.88
2023-02-15T20:59:31.914Z,99288.53
2023-02-15T21:02:02.993Z,99279.13
2023-02-15T21:04:33.142Z,99283.09
2023-02-15T21:07:01.036Z,99279.38
2023-02-15T21:09:28.867Z,99284.75
2023-02-15T21:11:58.576Z,99273.31
2023-02-15T21:14:28.384Z,99273.03
2023-02-15T21:16:55.745Z,99278.47
2023-02-15T21:19:24.302Z,99273.81
2023-02-15T21:21:53.334Z,99279.31
2023-02-15T21:24:26.772Z,99271.19
2023-02-15T21:26:54.932Z,99277.28
2023-02-15T21:29:26.596Z,99272.91
2023-02-15T21:31:54.177Z,99275.03
2023-02-15T21:34:21.448Z,99273.03
2023-02-15T21:36:50.580Z,99275.91
2023-02-15T21:39:26.300Z,99277.56
2023-02-15T21:42:13.826Z,99274.78
2023-02-15T21:45:03.372Z,99270.13
2023-02-15T21:47:50.414Z,99271.91
2023-02-15T21:50:59.443Z,99265.63
2023-02-15T21:53:34.416Z,99271.88
2023-02-15T21:56:05.087Z,99265.16
2023-02-15T21:58:37.146Z,99270.81
2023-02-15T22:01:11.711Z,99269.25
2023-02-15T22:03:39.579Z,99265.00
2023-02-15T22:06:06.773Z,99254.13
2023-02-15T22:08:34.092Z,99249.81
2023-02-15T22:11:01.656Z,99254.50
2023-02-15T22:13:32.444Z,99251.31
2023-02-15T22:15:59.849Z,99259.56
2023-02-15T22:18:34.081Z,99272.78
2023-02-15T22:21:02.442Z,99276.88
2023-02-15T22:23:30.212Z,99269.91
2023-02-15T22:26:07.794Z,99271.47
2023-02-15T22:28:42.620Z,99278.50
2023-02-15T22:31:15.966Z,99285.97
2023-02-15T22:33:44.790Z,99287.91
2023-02-15T22:36:30.249Z,99287.97
2023-02-15T22:38:57.875Z,99291.34
2023-02-15T22:41:33.185Z,99285.38
2023-02-15T22:44:30.376Z,99288.72
2023-02-15T22:47:25.634Z,99283.56
2023-02-15T22:49:56.127Z,99281.72
2023-02-15T22:52:23.694Z,99286.94
2023-02-15T22:54:50.695Z,99288.03
2023-02-15T22:57:56.122Z,99288.34
2023-02-15T23:00:29.215Z,99295.53
2023-02-15T23:02:56.629Z,99307.91
2023-02-15T23:05:30.209Z,99296.13
2023-02-15T23:07:57.996Z,99291.25
2023-02-15T23:10:26.754Z,99290.63
2023-02-15T23:13:16.535Z,99287.66
2023-02-15T23:15:48.642Z,99292.09
2023-02-15T23:18:43.855Z,99286.22
2023-02-15T23:21:28.512Z,99296.13
2023-02-15T23:24:23.083Z,99292.25
2023-02-15T23:26:50.708Z,99295.66
2023-02-15T23:29:26.687Z,99292.16
2023-02-15T23:31:54.316Z,99299.81
2023-02-15T23:34:29.319Z,99303.63
2023-02-15T23:36:56.895Z,99303.28
2023-02-15T23:39:46.936Z,99304.34
2023-02-15T23:42:20.687Z,99309.97
2023-02-15T23:44:48.599Z,99306.72
2023-02-15T23:47:52.798Z,99304.19
2023-02-15T23:50:29.482Z,99299.81
2023-02-15T23:52:57.343Z,99300.19
2023-02-15T23:55:34.360Z,99293.25
2023-02-15T23:58:02.335Z,99285.19
